Time;durP1;ratioP1;P1;durP2;ratioP2;P2;SDS_P1;SDS_P2;PMS_P1;PMS_P2;Temp;Humidity;BMP_temperature;BMP_pressure;BME280_temperature;BME280_humidity;BME280_pressure;Samples;Min_cycle;Max_cycle;Signal;HPM_P1;HPM_P2
2022/07/14 00:00:33;;;;;;;4.58;0.95;;;;;;;15.90;75.55;98690.90;1782262;80;21200;-43
2022/07/14 00:03:00;;;;;;;2.72;1.05;;;;;;;15.88;75.58;98698.14;1782206;80;20926;-43
2022/07/14 00:05:28;;;;;;;1.75;1.02;;;;;;;15.91;75.60;98706.90;1782553;80;21522;-43
2022/07/14 00:07:55;;;;;;;3.10;0.85;;;;;;;15.90;75.38;98711.41;1782625;80;21001;-43
2022/07/14 00:10:22;;;;;;;4.42;0.80;;;;;;;15.89;75.47;98710.63;1782740;80;21550;-43
2022/07/14 00:12:49;;;;;;;1.75;0.68;;;;;;;15.90;75.46;98716.88;1782691;80;21136;-43
2022/07/14 00:15:16;;;;;;;3.12;0.80;;;;;;;15.89;75.54;98717.45;1782558;80;20942;-43
2022/07/14 00:17:44;;;;;;;3.30;0.90;;;;;;;15.88;75.43;98720.00;1753835;80;20933;-43
2022/07/14 00:20:12;;;;;;;1.52;0.70;;;;;;;15.88;75.41;98720.00;1751674;82;20984;-43
2022/07/14 00:22:40;;;;;;;1.40;0.70;;;;;;;15.88;75.40;98726.84;1751610;82;21033;-43
2022/07/14 00:25:08;;;;;;;2.60;0.93;;;;;;;15.88;75.45;98713.76;1751621;82;22047;-43
2022/07/14 00:27:36;;;;;;;1.50;0.70;;;;;;;15.87;75.54;98718.48;1767171;80;20999;-43
2022/07/14 00:30:05;;;;;;;1.85;0.80;;;;;;;15.83;75.54;98721.83;1782664;80;21000;-43
2022/07/14 00:32:33;;;;;;;2.07;1.00;;;;;;;15.84;75.65;98719.87;1783256;80;20961;-43
2022/07/14 00:35:00;;;;;;;2.12;0.72;;;;;;;15.84;75.65;98719.87;1782610;80;21009;-43
2022/07/14 00:37:28;;;;;;;4.47;1.12;;;;;;;15.83;75.58;98719.09;1782695;80;21131;-43
2022/07/14 00:39:55;;;;;;;3.33;0.82;;;;;;;15.83;75.60;98724.56;1782647;80;20996;-43
2022/07/14 00:42:37;;;;;;;1.85;0.70;;;;;;;15.81;75.58;98726.94;1777379;80;21569;-43
2022/07/14 00:45:12;;;;;;;1.22;0.90;;;;;;;15.80;75.62;98729.48;1782525;80;21045;-43
2022/07/14 00:47:39;;;;;;;2.77;1.20;;;;;;;15.77;75.73;98735.00;1783240;80;21000;-43
2022/07/14 00:50:08;;;;;;;4.58;0.70;;;;;;;15.76;75.91;98736.18;1782596;80;21231;-43
2022/07/14 00:52:35;;;;;;;5.00;1.10;;;;;;;15.76;75.87;98739.69;1782558;80;20981;-43
2022/07/14 00:55:04;;;;;;;1.47;0.80;;;;;;;15.78;75.85;98741.41;1782488;80;20969;-43
2022/07/14 00:57:31;;;;;;;2.12;0.70;;;;;;;15.80;75.86;98740.42;1782885;80;21087;-43
2022/07/14 00:59:59;;;;;;;2.17;0.98;;;;;;;15.82;75.72;98741.39;1782575;80;21532;-43
2022/07/14 01:02:26;;;;;;;3.27;1.10;;;;;;;15.83;75.64;98743.69;1782464;80;21226;-43
2022/07/14 01:04:53;;;;;;;4.22;0.98;;;;;;;15.80;75.61;98753.31;1782502;80;20965;-43
2022/07/14 01:07:21;;;;;;;2.05;0.90;;;;;;;15.76;75.61;98749.84;1782596;80;20981;-43
2022/07/14 01:09:48;;;;;;;4.35;1.10;;;;;;;15.73;75.80;98748.72;1755133;80;21301;-43
2022/07/14 01:12:17;;;;;;;7.28;1.10;;;;;;;15.72;75.98;98756.73;1751648;82;20977;-43
2022/07/14 01:14:45;;;;;;;2.05;0.93;;;;;;;15.73;75.99;98759.65;1751519;82;21146;-43
2022/07/14 01:17:13;;;;;;;7.10;1.00;;;;;;;15.73;75.84;98755.55;1751808;82;21005;-43
2022/07/14 01:19:41;;;;;;;3.02;0.95;;;;;;;15.71;75.93;98761.23;1751496;82;20980;-43
2022/07/14 01:22:09;;;;;;;5.15;0.90;;;;;;;15.70;76.08;98767.28;1751602;82;21052;-43
2022/07/14 01:24:37;;;;;;;1.50;0.90;;;;;;;15.70;75.98;98765.91;1751742;82;21009;-43
2022/07/14 01:27:04;;;;;;;4.75;1.10;;;;;;;15.70;75.90;98770.59;1751640;82;21247;-43
2022/07/14 01:29:32;;;;;;;2.35;0.78;;;;;;;15.66;75.97;98770.65;1751518;82;20917;-43
2022/07/14 01:31:59;;;;;;;2.62;0.80;;;;;;;15.61;76.03;98767.77;1751632;82;20964;-43
2022/07/14 01:34:27;;;;;;;4.62;0.88;;;;;;;15.58;76.06;98771.92;1751700;82;21021;-43
2022/07/14 01:36:55;;;;;;;5.08;1.00;;;;;;;15.57;76.21;98767.04;1751607;82;22050;-43
2022/07/14 01:39:22;;;;;;;3.70;1.02;;;;;;;15.58;76.19;98766.45;1751837;82;21537;-43
2022/07/14 01:41:50;;;;;;;1.12;0.90;;;;;;;15.59;76.13;98768.76;1751724;82;21514;-43
2022/07/14 01:44:17;;;;;;;2.15;0.80;;;;;;;15.60;76.30;98761.34;1751648;82;20976;-43
2022/07/14 01:46:44;;;;;;;1.32;0.90;;;;;;;15.62;76.10;98764.45;1751595;82;21013;-43
2022/07/14 01:49:12;;;;;;;2.55;0.93;;;;;;;15.63;76.09;98774.20;1751654;82;21068;-43
2022/07/14 01:51:39;;;;;;;1.22;1.00;;;;;;;15.63;75.93;98772.25;1751732;82;21141;-43
2022/07/14 01:54:08;;;;;;;3.85;1.20;;;;;;;15.60;76.04;98773.05;1751686;82;20968;-43
2022/07/14 01:56:40;;;;;;;4.83;1.20;;;;;;;15.60;75.92;98777.73;1751721;82;20936;-43
2022/07/14 01:59:08;;;;;;;2.15;0.82;;;;;;;15.56;75.89;98782.47;1751825;81;21016;-43
2022/07/14 02:01:40;;;;;;;2.27;0.90;;;;;;;15.50;76.12;98784.05;1752018;82;21480;-43
2022/07/14 02:04:09;;;;;;;7.05;1.20;;;;;;;15.45;76.22;98785.86;1751866;82;21145;-43
2022/07/14 02:06:43;;;;;;;1.52;0.80;;;;;;;15.39;76.17;98788.28;1739620;82;21515;-43
2022/07/14 02:09:12;;;;;;;2.33;0.90;;;;;;;15.35;76.23;98794.92;1736878;82;21053;-43
2022/07/14 02:14:25;;;;;;;3.08;1.17;;;;;;;15.20;76.30;98787.48;1689251;85;20942;-43
2022/07/14 02:16:53;;;;;;;5.75;1.10;;;;;;;15.14;76.63;98790.45;1689144;85;21229;-43
2022/07/14 02:19:20;;;;;;;1.40;0.98;;;;;;;15.11;76.72;98796.11;1689031;85;21049;-43
2022/07/14 02:21:47;;;;;;;5.42;1.10;;;;;;;15.08;76.67;98796.16;1736518;82;21021;-43
2022/07/14 02:24:15;;;;;;;3.60;1.32;;;;;;;15.05;76.62;98810.03;1736655;82;21022;-43
2022/07/14 02:26:42;;;;;;;4.17;1.42;;;;;;;15.01;76.71;98816.08;1689280;85;21009;-43
2022/07/14 02:29:09;;;;;;;2.70;1.00;;;;;;;14.97;76.80;98816.70;1736498;82;21134;-43
2022/07/14 02:31:36;;;;;;;5.33;1.07;;;;;;;14.95;76.96;98831.36;1689065;85;21103;-43
2022/07/14 02:34:04;;;;;;;6.62;1.20;;;;;;;14.89;77.07;98829.45;1689072;85;21071;-43
2022/07/14 02:36:32;;;;;;;2.55;0.95;;;;;;;14.87;77.31;98829.84;1689123;85;20942;-43
2022/07/14 02:38:59;;;;;;;1.77;1.00;;;;;;;14.87;77.57;98833.93;1689094;85;21415;-43
2022/07/14 02:41:26;;;;;;;5.00;1.10;;;;;;;14.89;77.49;98832.95;1689211;85;21233;-43
2022/07/14 02:43:54;;;;;;;2.12;1.20;;;;;;;14.93;77.49;98829.61;1689034;85;20981;-43
2022/07/14 02:46:21;;;;;;;5.33;1.32;;;;;;;14.95;77.20;98838.19;1736508;82;21055;-43
2022/07/14 02:48:48;;;;;;;4.70;1.20;;;;;;;14.94;77.10;98834.48;1689211;85;21092;-43
2022/07/14 02:51:16;;;;;;;5.95;1.12;;;;;;;14.91;77.06;98836.05;1689151;85;21040;-43
2022/07/14 02:53:45;;;;;;;3.67;1.10;;;;;;;14.90;76.99;98841.92;1736882;82;21234;-43
2022/07/14 02:56:12;;;;;;;3.10;1.00;;;;;;;14.88;77.02;98842.31;1736576;82;20902;-43
2022/07/14 02:58:40;;;;;;;3.85;1.20;;;;;;;14.85;77.11;98845.85;1736635;82;20937;-43
2022/07/14 03:01:08;;;;;;;1.80;1.02;;;;;;;14.82;77.22;98852.68;1736419;82;21052;-43
2022/07/14 03:03:36;;;;;;;2.55;1.10;;;;;;;14.81;77.14;98851.93;1689187;85;21096;-43
2022/07/14 03:06:11;;;;;;;2.17;1.27;;;;;;;14.79;77.38;98857.00;1736372;82;23127;-43
2022/07/14 03:08:39;;;;;;;2.52;1.15;;;;;;;14.80;77.21;98849.00;1689022;84;20957;-43
2022/07/14 03:11:07;;;;;;;4.40;1.37;;;;;;;14.78;77.10;98854.07;1689211;85;21076;-43
2022/07/14 03:13:35;;;;;;;1.10;1.00;;;;;;;14.79;77.10;98852.31;1736935;82;20942;-43
2022/07/14 03:16:04;;;;;;;2.55;1.17;;;;;;;14.82;77.05;98852.68;1689162;85;21058;-42
2022/07/14 03:18:31;;;;;;;4.20;1.00;;;;;;;14.82;76.91;98846.64;1736570;82;21507;-43
2022/07/14 03:20:59;;;;;;;5.97;1.10;;;;;;;14.83;76.72;98857.75;1689182;85;21524;-42
2022/07/14 03:23:26;;;;;;;6.12;1.20;;;;;;;14.81;76.69;98856.02;1689130;85;20970;-42
2022/07/14 03:25:55;;;;;;;2.62;1.12;;;;;;;14.81;76.80;98864.20;1736702;82;21507;-42
2022/07/14 03:28:22;;;;;;;5.03;1.30;;;;;;;14.81;76.77;98858.75;1736594;82;21057;-42
2022/07/14 03:30:55;;;;;;;5.12;1.32;;;;;;;14.83;76.74;98867.30;1736531;82;21251;-42
2022/07/14 03:33:24;;;;;;;3.15;1.10;;;;;;;14.84;76.83;98864.77;1736585;82;20933;-42
2022/07/14 03:35:51;;;;;;;2.95;0.90;;;;;;;14.83;76.66;98868.66;1737017;82;21512;-42
2022/07/14 03:38:18;;;;;;;4.05;1.10;;;;;;;14.85;76.64;98873.14;1689104;85;21066;-42
2022/07/14 03:40:47;;;;;;;2.92;1.00;;;;;;;14.89;76.67;98868.44;1736763;82;21298;-42
2022/07/14 03:43:16;;;;;;;2.55;1.00;;;;;;;14.93;76.42;98877.38;1688814;85;21531;-42
2022/07/14 03:45:44;;;;;;;2.30;1.00;;;;;;;14.98;76.30;98877.54;1736356;82;21016;-42
2022/07/14 03:48:12;;;;;;;2.15;1.05;;;;;;;15.00;76.11;98880.07;1689079;85;20973;-42
2022/07/14 03:50:42;;;;;;;5.62;1.30;;;;;;;15.04;76.14;98884.91;1736383;82;26885;-42
2022/07/14 03:53:10;;;;;;;2.35;1.10;;;;;;;15.09;75.99;98883.13;1736423;82;21025;-42
2022/07/14 03:55:38;;;;;;;3.65;1.10;;;;;;;15.12;76.01;98878.22;1736621;82;21225;-42
2022/07/14 03:58:06;;;;;;;1.37;1.00;;;;;;;15.18;75.89;98889.49;1736424;82;20957;-42
2022/07/14 04:00:34;;;;;;;5.33;1.10;;;;;;;15.23;75.89;98884.97;1709423;82;21025;-42
2022/07/14 04:03:01;;;;;;;3.52;1.25;;;;;;;15.29;75.60;98891.56;1736614;82;20942;-42
2022/07/14 04:05:30;;;;;;;3.17;1.73;;;;;;;15.34;75.42;98891.72;1736691;82;21084;-42
2022/07/14 04:08:00;;;;;;;3.83;1.42;;;;;;;15.36;74.89;98896.17;1736442;82;21499;-42
2022/07/14 04:10:29;;;;;;;1.87;1.37;;;;;;;15.38;74.68;98902.02;1735905;82;21552;-42
2022/07/14 04:12:57;;;;;;;2.98;1.00;;;;;;;15.39;74.87;98897.53;1689236;84;21016;-42
2022/07/14 04:15:24;;;;;;;1.80;1.12;;;;;;;15.44;74.86;98896.33;1689003;85;20958;-42
2022/07/14 04:17:53;;;;;;;3.45;1.20;;;;;;;15.48;74.79;98903.90;1736476;82;21037;-42
2022/07/14 04:20:22;;;;;;;1.72;1.10;;;;;;;15.48;74.58;98897.06;1736702;82;21094;-42
2022/07/14 04:22:50;;;;;;;3.00;1.55;;;;;;;15.51;74.57;98896.28;1736570;82;21515;-42
2022/07/14 04:25:18;;;;;;;2.45;1.00;;;;;;;15.54;74.65;98899.59;1688874;85;21032;-42
2022/07/14 04:27:45;;;;;;;2.98;1.00;;;;;;;15.57;74.29;98902.87;1736465;82;21583;-42
2022/07/14 04:30:14;;;;;;;2.80;1.25;;;;;;;15.61;74.53;98908.49;1736379;82;21048;-42
2022/07/14 04:32:42;;;;;;;2.42;1.15;;;;;;;15.63;74.17;98921.17;1709471;82;21123;-42
2022/07/14 04:35:10;;;;;;;1.65;0.93;;;;;;;15.67;74.37;98915.67;1736479;82;20961;-42
2022/07/14 04:37:38;;;;;;;3.75;1.40;;;;;;;15.71;74.25;98912.90;1688986;85;21018;-42
2022/07/14 04:40:09;;;;;;;2.33;1.20;;;;;;;15.74;74.15;98907.39;1735253;82;21053;-42
2022/07/14 04:42:36;;;;;;;1.87;1.00;;;;;;;15.79;74.18;98906.95;1689385;85;21068;-42
2022/07/14 04:45:05;;;;;;;5.45;1.57;;;;;;;15.86;73.95;98914.32;1736457;82;21274;-42
2022/07/14 04:47:33;;;;;;;3.73;1.20;;;;;;;15.91;73.89;98917.40;1736619;82;21005;-42
2022/07/14 04:52:48;;;;;;;1.30;0.82;;;;;;;16.09;74.09;98915.84;1736487;82;20949;-42
2022/07/14 04:55:26;;;;;;;2.17;1.15;;;;;;;16.21;73.68;98920.03;1735159;80;21061;-42
2022/07/14 04:58:01;;;;;;;2.12;1.00;;;;;;;16.28;73.24;98918.56;1746223;82;21268;-42
2022/07/14 05:00:29;;;;;;;1.00;0.80;;;;;;;16.34;72.91;98918.31;1747011;82;21009;-42
2022/07/14 05:02:56;;;;;;;1.20;1.10;;;;;;;16.39;73.03;98920.59;1747147;82;21053;-42
2022/07/14 05:05:23;;;;;;;1.95;1.12;;;;;;;16.46;72.71;98924.01;1747076;82;20989;-42
2022/07/14 05:07:51;;;;;;;3.55;1.27;;;;;;;16.54;72.47;98921.98;1742243;82;21010;-42
2022/07/14 05:10:20;;;;;;;1.65;1.02;;;;;;;16.62;72.46;98928.94;1741811;82;21151;-42
2022/07/14 05:12:47;;;;;;;1.95;0.80;;;;;;;16.70;71.62;98929.64;1719262;82;21636;-42
2022/07/14 05:15:17;;;;;;;4.07;1.10;;;;;;;16.76;71.75;98928.76;1741889;82;21057;-42
2022/07/14 05:17:45;;;;;;;1.67;0.90;;;;;;;16.85;71.61;98930.39;1741842;82;21042;-42
2022/07/14 05:20:14;;;;;;;3.98;1.10;;;;;;;16.92;71.25;98930.31;1741903;82;21017;-42
2022/07/14 05:22:43;;;;;;;3.72;1.10;;;;;;;16.97;70.39;98944.14;1742237;82;21473;-42
2022/07/14 05:25:13;;;;;;;2.52;1.00;;;;;;;17.01;70.51;98938.02;1741932;82;20950;-42
2022/07/14 05:27:40;;;;;;;1.12;0.93;;;;;;;17.05;70.33;98943.43;1742186;82;21052;-42
2022/07/14 05:30:11;;;;;;;1.52;1.00;;;;;;;17.10;69.75;98934.16;1741981;82;21587;-42
2022/07/14 05:32:39;;;;;;;1.75;1.07;;;;;;;17.16;69.83;98942.10;1742247;82;21053;-42
2022/07/14 05:35:08;;;;;;;1.02;0.85;;;;;;;17.21;70.06;98931.27;1741831;82;21220;-42
2022/07/14 05:37:36;;;;;;;3.98;1.05;;;;;;;17.29;70.19;98940.93;1741835;82;20938;-42
2022/07/14 05:40:06;;;;;;;3.55;1.22;;;;;;;17.37;70.24;98931.43;1741994;82;21037;-42
2022/07/14 05:42:33;;;;;;;0.80;0.72;;;;;;;17.45;70.03;98943.05;1742277;82;20895;-42
2022/07/14 05:45:00;;;;;;;4.22;1.37;;;;;;;17.54;69.93;98934.48;1741910;82;21045;-42
2022/07/14 05:47:27;;;;;;;2.77;1.30;;;;;;;17.61;69.59;98935.77;1742202;82;21306;-42
2022/07/14 05:49:55;;;;;;;2.60;1.17;;;;;;;17.47;69.51;98903.09;1742029;82;21495;-42
2022/07/14 05:52:22;;;;;;;2.58;0.90;;;;;;;17.77;68.40;98940.58;1741836;82;20997;-42
2022/07/14 05:54:49;;;;;;;3.22;1.20;;;;;;;17.80;68.49;98939.77;1742043;82;21095;-42
2022/07/14 05:57:19;;;;;;;1.50;1.00;;;;;;;17.83;68.27;98934.03;1741985;82;21019;-42
2022/07/14 05:59:47;;;;;;;2.40;1.00;;;;;;;17.87;68.58;98934.73;1741860;82;21150;-42
2022/07/14 06:02:16;;;;;;;2.62;1.17;;;;;;;17.97;68.39;98932.41;1741894;82;20902;-42
2022/07/14 06:04:43;;;;;;;2.77;1.00;;;;;;;18.06;68.44;98936.75;1742065;82;21016;-42
2022/07/14 06:07:10;;;;;;;1.70;0.90;;;;;;;18.15;67.33;98935.00;1745920;82;20996;-42
2022/07/14 06:09:40;;;;;;;5.33;1.15;;;;;;;18.23;66.20;98938.41;1750131;82;21103;-42
2022/07/14 06:12:08;;;;;;;1.72;1.00;;;;;;;18.28;66.47;98937.92;1749709;82;21586;-42
2022/07/14 06:14:37;;;;;;;4.92;1.05;;;;;;;18.33;66.55;98936.06;1749979;82;21090;-42
2022/07/14 06:17:06;;;;;;;2.22;0.93;;;;;;;18.39;66.33;98932.23;1749781;82;21028;-43
2022/07/14 06:19:33;;;;;;;4.47;1.07;;;;;;;18.49;65.97;98944.34;1749933;82;20969;-42
2022/07/14 06:22:06;;;;;;;2.45;1.10;;;;;;;18.57;66.44;98943.06;1749920;82;20993;-43
2022/07/14 06:24:34;;;;;;;3.05;1.30;;;;;;;18.67;66.79;98935.80;1749847;82;21230;-42
2022/07/14 06:27:03;;;;;;;5.58;1.17;;;;;;;18.81;65.88;98944.34;1720897;82;21057;-42
2022/07/14 06:29:32;;;;;;;2.20;1.25;;;;;;;18.89;66.05;98945.73;1749956;82;21104;-43
2022/07/14 06:31:59;;;;;;;2.65;1.45;;;;;;;18.95;65.34;98939.32;1749673;82;22215;-43
2022/07/14 06:34:27;;;;;;;18.85;2.87;;;;;;;19.04;65.80;98940.88;1749890;82;21065;-42
2022/07/14 06:37:00;;;;;;;2.58;1.27;;;;;;;19.15;65.74;98937.91;1749434;82;21900;-42
2022/07/14 06:39:27;;;;;;;2.77;1.20;;;;;;;19.24;65.78;98939.45;1749773;82;21009;-43
2022/07/14 06:41:55;;;;;;;1.35;0.98;;;;;;;19.33;65.19;98932.77;1749875;82;21005;-43
2022/07/14 06:44:24;;;;;;;3.10;1.32;;;;;;;19.43;65.45;98939.99;1749770;82;21084;-43
2022/07/14 06:46:53;;;;;;;2.95;1.20;;;;;;;19.56;64.83;98940.09;1749786;82;21002;-43
2022/07/14 06:49:20;;;;;;;2.20;1.20;;;;;;;19.66;64.51;98944.57;1749912;82;21233;-43
2022/07/14 06:51:48;;;;;;;3.22;1.25;;;;;;;19.74;64.25;98946.56;1749962;82;21012;-43
2022/07/14 06:54:16;;;;;;;2.22;1.10;;;;;;;19.79;64.94;98944.67;1744634;82;20969;-43
2022/07/14 06:56:43;;;;;;;3.05;1.05;;;;;;;19.88;64.87;98953.08;1749891;82;21002;-43
2022/07/14 06:59:11;;;;;;;2.70;1.05;;;;;;;19.93;64.16;98953.94;1749795;82;21018;-43
2022/07/14 07:01:38;;;;;;;1.75;1.00;;;;;;;19.96;63.42;98946.19;1749859;82;21147;-43
2022/07/14 07:04:06;;;;;;;2.40;1.20;;;;;;;20.00;63.29;98944.11;1749707;82;20973;-43
2022/07/14 07:06:46;;;;;;;3.22;1.10;;;;;;;20.09;63.00;98951.14;1749575;82;21033;-43
2022/07/14 07:09:16;;;;;;;3.35;1.12;;;;;;;20.21;62.89;98946.91;1749757;82;21547;-43
2022/07/14 07:11:44;;;;;;;2.27;0.90;;;;;;;20.34;62.12;98954.64;1749991;82;21033;-43
2022/07/14 07:14:13;;;;;;;1.47;0.95;;;;;;;20.46;60.02;98955.30;1749837;82;21496;-43
2022/07/14 07:16:40;;;;;;;3.05;1.00;;;;;;;20.53;59.84;98963.95;1749596;82;21556;-43
2022/07/14 07:19:07;;;;;;;3.27;1.20;;;;;;;20.56;59.07;98954.84;1750043;82;21484;-43
2022/07/14 07:21:36;;;;;;;1.57;0.90;;;;;;;20.59;59.46;98953.96;1750047;82;21000;-43
2022/07/14 07:24:04;;;;;;;1.75;0.90;;;;;;;20.64;59.37;98956.95;1749994;82;21005;-43
2022/07/14 07:26:36;;;;;;;3.12;1.07;;;;;;;20.75;59.59;98965.70;1749854;82;21249;-43
2022/07/14 07:29:04;;;;;;;1.00;0.80;;;;;;;20.87;58.26;98964.16;1750047;82;21006;-43
2022/07/14 07:31:32;;;;;;;1.40;1.00;;;;;;;21.00;58.36;98954.55;1749738;82;21020;-43
2022/07/14 07:34:00;;;;;;;1.50;1.10;;;;;;;21.17;59.37;98951.28;1750040;82;21020;-43
2022/07/14 07:36:26;;;;;;;3.10;0.70;;;;;;;21.36;57.24;98948.73;1749724;82;21610;-43
2022/07/14 07:38:53;;;;;;;2.33;1.37;;;;;;;21.39;56.91;98950.63;1749916;82;21131;-43
2022/07/14 07:41:20;;;;;;;3.12;0.90;;;;;;;21.30;57.36;98955.41;1749839;82;20945;-43
2022/07/14 07:43:47;;;;;;;2.67;1.00;;;;;;;21.21;58.63;98953.32;1749900;82;20890;-43
2022/07/14 07:46:15;;;;;;;1.85;0.90;;;;;;;21.24;58.87;98948.32;1749533;82;21025;-43
2022/07/14 07:48:42;;;;;;;2.27;1.00;;;;;;;21.28;58.52;98950.19;1749775;82;21060;-43
2022/07/14 07:51:10;;;;;;;2.70;1.07;;;;;;;21.29;57.97;98950.36;1749599;82;23116;-43
2022/07/14 07:53:37;;;;;;;1.45;0.85;;;;;;;21.30;57.96;98960.92;1749713;82;21477;-43
2022/07/14 07:56:05;;;;;;;1.35;1.00;;;;;;;21.39;58.43;98953.39;1749726;82;21562;-43
2022/07/14 07:58:33;;;;;;;3.42;1.00;;;;;;;21.49;57.09;98948.92;1749975;82;21540;-43
2022/07/14 08:00:59;;;;;;;1.57;0.80;;;;;;;21.63;58.23;98951.83;1749838;82;21080;-43
2022/07/14 08:03:26;;;;;;;2.15;0.93;;;;;;;21.76;57.14;98944.30;1749727;82;21129;-43
2022/07/14 08:05:53;;;;;;;3.75;1.35;;;;;;;21.81;55.74;98954.77;1749537;82;21586;-43
2022/07/14 08:08:21;;;;;;;2.02;1.00;;;;;;;21.83;55.12;98950.20;1744171;82;21463;-43
2022/07/14 08:10:50;;;;;;;1.35;0.90;;;;;;;21.86;55.34;98955.59;1741857;82;20969;-43
2022/07/14 08:13:17;;;;;;;2.12;1.00;;;;;;;21.96;55.92;98946.21;1741914;82;21483;-43
2022/07/14 08:15:43;;;;;;;2.40;1.15;;;;;;;22.16;55.54;98964.48;1741978;82;22132;-43
2022/07/14 08:18:10;;;;;;;1.70;1.10;;;;;;;22.27;54.65;98948.33;1741941;82;21818;-43
2022/07/14 08:20:37;;;;;;;1.10;1.00;;;;;;;22.35;55.12;98955.13;1741780;82;20985;-43
2022/07/14 08:23:05;;;;;;;2.47;1.45;;;;;;;22.34;54.53;98942.53;1741972;82;21093;-43
2022/07/14 08:25:33;;;;;;;2.70;1.37;;;;;;;22.29;54.15;98951.39;1741916;82;21120;-43
2022/07/14 08:28:00;;;;;;;2.75;1.62;;;;;;;22.25;54.83;98954.89;1741772;82;21177;-43
2022/07/14 08:30:27;;;;;;;3.37;1.40;;;;;;;22.26;54.88;98959.98;1741719;82;20946;-43
2022/07/14 08:32:54;;;;;;;1.40;1.17;;;;;;;22.31;55.68;98961.39;1741710;82;20965;-43
2022/07/14 08:35:23;;;;;;;1.90;1.20;;;;;;;22.47;55.94;98961.19;1741923;82;21488;-43
2022/07/14 08:37:51;;;;;;;3.63;1.30;;;;;;;22.69;56.17;98959.83;1742557;82;21042;-43
2022/07/14 08:40:21;;;;;;;2.92;1.57;;;;;;;22.85;55.35;98964.55;1741891;82;21293;-43
2022/07/14 08:42:50;;;;;;;1.75;1.42;;;;;;;22.93;54.83;98965.84;1741826;82;20929;-43
2022/07/14 08:45:21;;;;;;;1.55;1.35;;;;;;;22.94;53.74;98970.16;1742096;82;21049;-43
2022/07/14 08:47:50;;;;;;;2.58;1.62;;;;;;;22.85;53.48;98970.72;1741795;82;21104;-43
2022/07/14 08:50:20;;;;;;;3.05;1.70;;;;;;;22.78;54.31;98970.97;1741894;82;21018;-43
2022/07/14 08:52:47;;;;;;;1.85;1.55;;;;;;;22.86;55.25;98973.62;1742036;82;22179;-43
2022/07/14 08:55:17;;;;;;;2.83;1.75;;;;;;;23.01;53.34;98966.34;1741744;82;21033;-43
2022/07/14 08:57:44;;;;;;;3.25;1.70;;;;;;;23.06;53.29;98964.37;1742221;82;21005;-43
2022/07/14 09:00:15;;;;;;;2.65;1.77;;;;;;;23.07;53.72;98965.14;1741722;82;21037;-43
2022/07/14 09:02:52;;;;;;;2.75;1.90;;;;;;;22.99;53.45;98964.66;1742046;82;21543;-43
2022/07/14 09:05:20;;;;;;;4.78;1.85;;;;;;;22.86;53.06;98968.86;1741367;82;21150;-43
2022/07/14 09:07:47;;;;;;;3.37;2.00;;;;;;;22.76;53.39;98971.41;1744155;82;21500;-43
2022/07/14 09:10:19;;;;;;;2.95;2.00;;;;;;;22.79;53.89;98970.53;1676422;82;21570;-43
2022/07/14 09:12:47;;;;;;;2.55;1.50;;;;;;;22.92;53.84;98967.06;1750285;81;21531;-43
2022/07/14 09:18:04;;;;;;;2.80;1.65;;;;;;;23.34;54.09;98966.64;1749916;81;21013;-43
2022/07/14 09:22:58;;;;;;;3.02;1.70;;;;;;;23.83;53.02;98963.91;1779549;79;22668;-43
2022/07/14 09:25:26;;;;;;;2.95;2.02;;;;;;;23.87;52.64;98962.39;1739010;82;21011;-43
2022/07/14 09:27:53;;;;;;;2.10;1.60;;;;;;;23.98;52.74;98960.70;1739195;82;21121;-43
2022/07/14 09:30:21;;;;;;;3.22;1.60;;;;;;;24.14;52.36;98957.66;1739105;82;22031;-43
2022/07/14 09:32:58;;;;;;;2.02;1.77;;;;;;;24.23;50.63;98963.84;1739131;82;21536;-43
2022/07/14 09:35:41;;;;;;;2.95;1.90;;;;;;;24.25;49.95;98957.23;1739174;82;20999;-43
2022/07/14 09:38:20;;;;;;;2.30;1.82;;;;;;;24.19;50.29;98953.53;1738423;82;20927;-43
2022/07/14 09:40:48;;;;;;;3.87;1.70;;;;;;;24.21;51.62;98942.73;1739264;82;21037;-43
2022/07/14 09:43:16;;;;;;;2.83;1.50;;;;;;;24.35;51.31;98960.12;1738991;82;21511;-43
2022/07/14 09:45:45;;;;;;;2.98;1.70;;;;;;;24.48;49.18;98953.84;1739092;82;21496;-43
2022/07/14 09:48:16;;;;;;;3.62;1.80;;;;;;;24.58;50.21;98951.21;1738928;82;20919;-43
2022/07/14 09:50:54;;;;;;;3.55;1.80;;;;;;;24.72;50.54;98955.95;1739105;82;20979;-43
2022/07/14 09:53:32;;;;;;;4.10;1.80;;;;;;;24.84;48.68;98949.45;1739046;82;21126;-43
2022/07/14 09:56:07;;;;;;;2.75;1.90;;;;;;;24.83;47.74;98954.25;1739360;82;20982;-43
2022/07/14 09:58:45;;;;;;;2.35;1.67;;;;;;;24.69;47.88;98954.25;1739074;82;21540;-43
2022/07/14 10:01:18;;;;;;;2.08;1.57;;;;;;;24.53;48.11;98960.14;1738880;82;21388;-43
2022/07/14 10:03:49;;;;;;;2.95;1.70;;;;;;;24.35;48.51;98964.28;1739202;82;21117;-43
2022/07/14 10:06:17;;;;;;;5.72;1.60;;;;;;;24.11;48.26;98971.63;1739448;82;21096;-43
2022/07/14 10:08:48;;;;;;;3.65;1.67;;;;;;;23.91;49.70;98967.94;1733541;82;20978;-43
2022/07/14 10:11:16;;;;;;;2.37;1.75;;;;;;;23.90;50.27;98965.63;1720688;82;21065;-43
2022/07/14 10:13:44;;;;;;;3.40;1.42;;;;;;;24.05;51.26;98961.80;1739249;82;20947;-43
2022/07/14 10:16:12;;;;;;;2.67;1.75;;;;;;;24.30;49.55;98968.31;1738857;82;21042;-43
2022/07/14 10:18:39;;;;;;;2.80;1.60;;;;;;;24.53;49.05;98962.14;1739127;82;21223;-43
2022/07/14 10:21:07;;;;;;;3.80;1.70;;;;;;;24.79;47.71;98966.70;1737396;81;21121;-43
2022/07/14 10:23:34;;;;;;;2.33;1.65;;;;;;;24.97;47.53;98958.40;1728468;83;20972;-43
2022/07/14 10:26:01;;;;;;;1.85;1.70;;;;;;;25.16;46.53;98970.20;1728568;83;21035;-43
2022/07/14 10:28:28;;;;;;;2.05;1.42;;;;;;;25.24;45.93;98970.79;1728535;83;21501;-43
2022/07/14 10:31:25;;;;;;;3.30;1.82;;;;;;;25.31;46.52;98969.08;1728577;83;21219;-43
2022/07/14 10:34:25;;;;;;;2.55;1.70;;;;;;;25.39;46.37;98966.72;1728112;83;21033;-43
2022/07/14 10:37:07;;;;;;;4.12;1.50;;;;;;;25.47;45.23;98964.52;1727633;82;20975;-43
2022/07/14 10:39:50;;;;;;;3.00;1.70;;;;;;;25.64;44.35;98954.45;1725888;82;21509;-43
2022/07/14 10:42:31;;;;;;;2.27;1.40;;;;;;;25.82;45.26;98955.73;1728236;83;21018;-43
2022/07/14 10:45:00;;;;;;;3.40;1.82;;;;;;;26.08;42.75;98959.58;1728195;82;21600;-43
2022/07/14 10:47:49;;;;;;;2.23;1.43;;;;;;;26.26;41.06;98963.63;1710296;82;20971;-43
2022/07/14 10:50:25;;;;;;;1.50;1.40;;;;;;;26.41;42.53;98957.33;1719317;82;21028;-43
2022/07/14 10:53:00;;;;;;;2.55;1.50;;;;;;;26.60;40.06;98952.52;1747542;82;20965;-43
2022/07/14 10:55:33;;;;;;;2.70;1.87;;;;;;;26.82;40.78;98952.91;1746529;82;21021;-43
2022/07/14 10:58:08;;;;;;;3.52;1.50;;;;;;;26.97;39.09;98954.95;1711690;83;21218;-43
2022/07/14 11:00:47;;;;;;;2.65;1.50;;;;;;;26.99;40.85;98956.02;1711236;83;21523;-43
2022/07/14 11:03:39;;;;;;;;;;;;;;;27.05;40.31;98958.89;1688999;85;21002;-43
2022/07/14 11:06:12;;;;;;;2.75;1.70;;;;;;;27.06;39.72;98954.22;1693923;84;20185;-43
2022/07/14 11:08:45;;;;;;;3.60;1.60;;;;;;;26.98;39.44;98963.44;1748299;82;20979;-43
2022/07/14 11:11:22;;;;;;;2.60;1.60;;;;;;;27.01;39.08;98963.27;1744128;82;21274;-43
2022/07/14 11:14:03;;;;;;;3.75;1.90;;;;;;;26.98;39.64;98960.66;1749070;82;20937;-43
2022/07/14 11:16:51;;;;;;;4.40;1.60;;;;;;;27.07;39.25;98961.33;1748808;82;20937;-43
2022/07/14 11:19:35;;;;;;;2.35;1.77;;;;;;;27.17;38.52;98965.55;1749041;82;20928;-43
2022/07/14 11:22:21;;;;;;;2.50;1.50;;;;;;;27.27;38.47;98964.04;1751897;81;20942;-43
2022/07/14 11:24:59;;;;;;;4.08;1.77;;;;;;;27.33;38.36;98961.50;1756883;81;21099;-43
2022/07/14 11:27:38;;;;;;;1.70;1.55;;;;;;;27.36;39.00;98954.95;1720710;83;20953;-43
2022/07/14 11:30:30;;;;;;;2.12;1.72;;;;;;;27.54;39.33;98956.78;1720893;83;21551;-44
2022/07/14 11:33:09;;;;;;;2.45;1.37;;;;;;;27.60;37.72;98959.00;1720784;83;20996;-43
2022/07/14 11:38:39;;;;;;;1.95;1.55;;;;;;;27.93;37.65;98963.63;1720982;83;21462;-43
2022/07/14 11:41:13;;;;;;;1.98;1.60;;;;;;;28.24;36.29;98963.04;1720670;83;21079;-43
2022/07/14 11:43:50;;;;;;;2.22;1.60;;;;;;;28.38;34.01;98955.22;1720893;83;21021;-43
2022/07/14 11:46:20;;;;;;;2.87;1.70;;;;;;;28.42;35.36;98948.02;1720675;83;21478;-43
2022/07/14 11:49:05;;;;;;;2.42;1.70;;;;;;;28.52;36.12;98963.34;1721012;83;21542;-43
2022/07/14 11:51:33;;;;;;;2.52;1.40;;;;;;;28.65;34.41;98957.41;1720598;83;23149;-44
2022/07/14 11:54:03;;;;;;;2.02;1.57;;;;;;;28.87;34.21;98952.83;1720841;83;20984;-44
2022/07/14 11:56:30;;;;;;;;;;;;;;;29.03;32.91;98951.45;1723323;83;21529;-44
2022/07/14 11:59:06;;;;;;;2.47;1.70;;;;;;;29.06;32.10;98948.28;1702717;84;20201;-44